GMZ weather

La Gomera Airport
Alajero, La Gomera Island, Canary Islands, Spain

Public forecast

Using degrees Celsius for public forecast. Weather courtesy of forecast.io.

METAR (pilot weather report)

Retrieved 2019/05/19 11:30 UTC (19 minutes ago):

GCGM 191130Z 23011KT 9999 FEW025 21/15 Q1017 RMK R09/24007KT 170V300 ARP/24009KT 170V290

TAF (pilot weather forecast)

Retrieved 2019/05/19 09:00 UTC (3 hours ago):

TAF GCGM 190800Z 1909/2009 22007KT 9999 FEW025 TX22/1914Z TN17/2006Z